Time;durP1;ratioP1;P1;durP2;ratioP2;P2;SDS_P1;SDS_P2;PMS_P1;PMS_P2;Temp;Humidity;BMP_temperature;BMP_pressure;BME280_temperature;BME280_humidity;BME280_pressure;Samples;Min_cycle;Max_cycle;Signal;HPM_P1;HPM_P2
2021/03/09 00:01:55;;;;;;;18.00;8.73;;;3.40;99.90;;;;;;4939434;29;20607;-85
2021/03/09 00:04:21;;;;;;;15.00;8.32;;;3.10;99.90;;;;;;4956446;29;20038;-85
2021/03/09 00:06:47;;;;;;;16.20;8.73;;;3.20;99.90;;;;;;4939539;29;20023;-85
2021/03/09 00:09:12;;;;;;;13.50;7.78;;;3.40;99.90;;;;;;4939138;29;20027;-84
2021/03/09 00:11:38;;;;;;;15.27;8.95;;;3.20;99.90;;;;;;4939032;29;20457;-85
2021/03/09 00:14:04;;;;;;;17.98;7.97;;;3.20;99.90;;;;;;4956811;29;20158;-85
2021/03/09 00:16:29;;;;;;;14.07;8.50;;;3.00;99.90;;;;;;4939186;29;20023;-85
2021/03/09 00:18:55;;;;;;;15.98;8.63;;;3.00;99.90;;;;;;4939049;29;20039;-85
2021/03/09 00:21:21;;;;;;;16.92;9.13;;;2.90;99.90;;;;;;4939149;29;20098;-85
2021/03/09 00:23:46;;;;;;;14.20;7.53;;;2.80;99.90;;;;;;4956236;29;20027;-85
2021/03/09 00:26:13;;;;;;;12.45;8.00;;;2.70;99.90;;;;;;4938933;29;20050;-84
2021/03/09 00:28:38;;;;;;;13.82;8.27;;;2.70;99.90;;;;;;4956248;29;20050;-85
2021/03/09 00:31:04;;;;;;;13.02;7.65;;;2.10;99.90;;;;;;4938844;28;20031;-85
2021/03/09 00:33:30;;;;;;;14.75;8.18;;;1.80;99.90;;;;;;4938892;29;20123;-85
2021/03/09 00:35:56;;;;;;;14.73;8.13;;;1.70;99.90;;;;;;4938003;29;20038;-85
2021/03/09 00:38:22;;;;;;;12.40;7.63;;;1.70;99.90;;;;;;4938839;29;20027;-85
2021/03/09 00:40:47;;;;;;;16.65;8.32;;;2.10;99.90;;;;;;4938634;29;20081;-85
2021/03/09 00:43:14;;;;;;;11.15;6.72;;;2.30;99.90;;;;;;4938845;29;20034;-85
2021/03/09 00:45:40;;;;;;;15.30;8.65;;;2.50;99.90;;;;;;4938746;29;20042;-85
2021/03/09 00:48:06;;;;;;;12.88;7.80;;;2.70;99.90;;;;;;4939099;29;20035;-85
2021/03/09 00:50:32;;;;;;;12.85;7.25;;;2.80;99.90;;;;;;4955741;29;20054;-85
2021/03/09 00:52:57;;;;;;;16.27;8.93;;;3.10;99.90;;;;;;4955729;29;20037;-85
2021/03/09 00:55:23;;;;;;;19.05;8.52;;;2.90;99.90;;;;;;4938515;29;20110;-85
2021/03/09 00:58:00;;;;;;;14.48;8.43;;;2.60;99.90;;;;;;4938619;29;20117;-85
2021/03/09 01:00:27;;;;;;;13.18;7.72;;;2.80;99.90;;;;;;4938336;29;20063;-85
2021/03/09 01:02:53;;;;;;;13.65;7.72;;;2.70;99.90;;;;;;4938458;29;20117;-85
2021/03/09 01:05:21;;;;;;;13.93;7.65;;;2.50;99.90;;;;;;4938420;29;20111;-85
2021/03/09 01:07:46;;;;;;;14.05;7.50;;;2.80;99.90;;;;;;4955692;29;20027;-85
2021/03/09 01:10:13;;;;;;;13.15;7.22;;;3.00;99.90;;;;;;4938368;29;20394;-84
2021/03/09 01:12:39;;;;;;;13.00;7.70;;;2.90;99.90;;;;;;4938481;29;20479;-85
2021/03/09 01:15:06;;;;;;;12.10;7.32;;;2.60;99.90;;;;;;4938428;29;20034;-85
2021/03/09 01:17:32;;;;;;;12.90;7.45;;;2.30;99.90;;;;;;4938670;29;20027;-84
2021/03/09 01:19:58;;;;;;;10.65;7.07;;;2.30;99.90;;;;;;4955673;29;20098;-85
2021/03/09 01:22:24;;;;;;;12.38;7.30;;;2.10;99.90;;;;;;4938538;29;20030;-84
2021/03/09 01:24:49;;;;;;;13.27;7.45;;;2.00;99.90;;;;;;4938356;29;20398;-85
2021/03/09 01:27:15;;;;;;;11.90;7.60;;;2.00;99.90;;;;;;4938310;29;20032;-84
2021/03/09 01:29:42;;;;;;;13.52;8.63;;;2.40;99.90;;;;;;4938476;29;20019;-84
2021/03/09 01:32:08;;;;;;;14.27;7.80;;;2.40;99.90;;;;;;4938149;29;20104;-84
2021/03/09 01:34:33;;;;;;;15.10;7.03;;;2.10;99.90;;;;;;4938267;29;20054;-84
2021/03/09 01:36:59;;;;;;;12.40;6.75;;;2.10;99.90;;;;;;4938262;29;20118;-84
2021/03/09 01:39:25;;;;;;;9.65;6.45;;;1.90;99.90;;;;;;4938161;29;20027;-84
2021/03/09 01:41:51;;;;;;;9.98;6.90;;;2.30;99.90;;;;;;4938107;29;20027;-84
2021/03/09 01:44:17;;;;;;;15.02;8.05;;;2.30;99.90;;;;;;4938132;29;20399;-84
2021/03/09 01:46:44;;;;;;;14.18;8.18;;;1.90;99.90;;;;;;4939347;29;20082;-84
2021/03/09 01:49:14;;;;;;;13.63;7.68;;;1.70;99.90;;;;;;4941634;29;20051;-84
2021/03/09 01:51:40;;;;;;;14.93;7.45;;;1.90;99.90;;;;;;4941702;29;20039;-84
2021/03/09 01:54:06;;;;;;;13.55;6.85;;;2.10;99.90;;;;;;4941546;29;20027;-84
2021/03/09 01:56:32;;;;;;;11.90;7.45;;;2.30;99.90;;;;;;4958914;29;20024;-84
2021/03/09 01:59:00;;;;;;;10.73;6.95;;;2.30;99.90;;;;;;4942111;29;20026;-84
2021/03/09 02:01:26;;;;;;;13.35;7.50;;;2.30;99.90;;;;;;4958880;29;20050;-84
2021/03/09 02:03:52;;;;;;;11.75;7.32;;;2.40;99.90;;;;;;4941281;29;20070;-84
2021/03/09 02:06:18;;;;;;;15.20;8.30;;;2.20;99.90;;;;;;4958595;29;20027;-84
2021/03/09 02:08:46;;;;;;;11.75;7.18;;;2.10;99.90;;;;;;4941490;29;20031;-84
2021/03/09 02:11:27;;;;;;;15.30;8.45;;;2.10;99.90;;;;;;4941205;29;20063;-84
2021/03/09 02:13:59;;;;;;;14.10;7.25;;;2.00;99.90;;;;;;4941323;29;20546;-84
2021/03/09 02:16:43;;;;;;;12.63;7.53;;;1.90;99.90;;;;;;4941178;29;20491;-84
2021/03/09 02:19:46;;;;;;;14.75;7.65;;;1.90;99.90;;;;;;4941294;29;20527;-84
2021/03/09 02:22:49;;;;;;;11.50;6.93;;;1.70;99.90;;;;;;4941183;29;20122;-83
2021/03/09 02:25:46;;;;;;;13.30;7.38;;;2.20;99.90;;;;;;4941126;29;20086;-85
2021/03/09 02:28:28;;;;;;;10.00;6.70;;;2.00;99.90;;;;;;4941261;29;20042;-84
2021/03/09 02:30:56;;;;;;;13.00;7.82;;;2.30;99.90;;;;;;4941026;29;20483;-84
2021/03/09 02:33:29;;;;;;;11.95;6.63;;;2.50;99.90;;;;;;4941029;29;20023;-85
2021/03/09 02:36:06;;;;;;;11.63;6.78;;;2.10;99.90;;;;;;4958607;29;20047;-84
2021/03/09 02:38:46;;;;;;;13.55;7.75;;;2.30;99.90;;;;;;4941036;29;20075;-85
2021/03/09 02:41:14;;;;;;;12.25;7.00;;;2.40;99.90;;;;;;4940844;29;20043;-85
2021/03/09 02:43:43;;;;;;;10.27;6.70;;;1.90;99.90;;;;;;4940903;29;20042;-84
2021/03/09 02:46:10;;;;;;;12.23;8.23;;;2.10;99.90;;;;;;4958185;29;20020;-84
2021/03/09 02:48:38;;;;;;;21.77;10.52;;;1.70;99.90;;;;;;4940456;29;20051;-84
2021/03/09 02:51:05;;;;;;;11.65;7.78;;;1.60;99.90;;;;;;4957898;29;20091;-85
2021/03/09 02:53:34;;;;;;;13.50;7.95;;;1.70;99.90;;;;;;4940666;29;20027;-85
2021/03/09 02:56:04;;;;;;;10.05;6.97;;;2.00;99.90;;;;;;4940630;29;20537;-84
2021/03/09 02:58:31;;;;;;;12.52;7.90;;;1.80;99.90;;;;;;4939740;29;20551;-84
2021/03/09 03:00:59;;;;;;;12.02;7.72;;;1.80;99.90;;;;;;4940416;29;20063;-84
2021/03/09 03:03:26;;;;;;;11.15;7.20;;;1.50;99.90;;;;;;4940417;29;20024;-84
2021/03/09 03:05:57;;;;;;;15.02;7.20;;;1.70;99.90;;;;;;4940052;29;20027;-84
2021/03/09 03:08:24;;;;;;;11.82;6.68;;;1.90;99.90;;;;;;4940349;29;20127;-85
2021/03/09 03:10:51;;;;;;;14.07;7.28;;;1.80;99.90;;;;;;4940227;29;20038;-84
2021/03/09 03:13:18;;;;;;;10.90;7.45;;;1.90;99.90;;;;;;4940711;29;20464;-84
2021/03/09 03:15:51;;;;;;;13.80;7.70;;;1.50;99.90;;;;;;4940386;29;20491;-85
2021/03/09 03:18:18;;;;;;;17.27;7.63;;;1.40;99.90;;;;;;4940209;29;20023;-85
2021/03/09 03:20:47;;;;;;;11.18;7.15;;;1.70;99.90;;;;;;4939967;29;20071;-84
2021/03/09 03:23:14;;;;;;;14.32;7.70;;;1.50;99.90;;;;;;4939948;29;20031;-84
2021/03/09 03:25:40;;;;;;;11.25;6.75;;;1.80;99.90;;;;;;4939861;29;20487;-85
2021/03/09 03:28:08;;;;;;;9.30;6.68;;;1.90;99.90;;;;;;4939984;29;20383;-85
2021/03/09 03:30:34;;;;;;;14.52;7.80;;;2.00;99.90;;;;;;4939761;29;20539;-84
2021/03/09 03:33:01;;;;;;;15.20;7.72;;;1.70;99.90;;;;;;4956751;28;20387;-85
2021/03/09 03:35:27;;;;;;;12.27;6.50;;;1.80;99.90;;;;;;4939801;29;20388;-84
2021/03/09 03:37:52;;;;;;;12.20;7.95;;;1.80;99.90;;;;;;4939795;29;20034;-84
2021/03/09 03:40:21;;;;;;;11.25;7.40;;;1.90;99.90;;;;;;4939249;29;20050;-85
2021/03/09 03:42:47;;;;;;;14.75;7.15;;;1.80;99.90;;;;;;4956503;29;20431;-84
2021/03/09 03:45:17;;;;;;;19.73;7.38;;;1.80;99.90;;;;;;4939226;29;20023;-84
2021/03/09 03:47:43;;;;;;;11.98;6.68;;;1.80;99.90;;;;;;4939168;29;20027;-84
2021/03/09 03:50:16;;;;;;;12.55;7.05;;;1.60;99.90;;;;;;4938898;29;20071;-84
2021/03/09 03:52:51;;;;;;;8.80;6.57;;;1.80;99.90;;;;;;4956310;29;20094;-84
2021/03/09 03:55:26;;;;;;;10.52;6.88;;;1.70;99.90;;;;;;4939005;29;20395;-84
2021/03/09 03:57:54;;;;;;;12.35;7.32;;;2.00;99.90;;;;;;4956204;29;20027;-84
2021/03/09 04:00:22;;;;;;;13.63;7.88;;;1.70;99.90;;;;;;4938956;29;20062;-84
2021/03/09 04:02:49;;;;;;;10.88;7.03;;;1.50;99.90;;;;;;4956131;29;20027;-85
2021/03/09 04:05:17;;;;;;;10.35;6.75;;;1.50;99.90;;;;;;4938843;29;20555;-84
2021/03/09 04:07:44;;;;;;;9.88;6.53;;;1.70;99.90;;;;;;4938829;29;20387;-84
2021/03/09 04:10:11;;;;;;;9.82;6.88;;;1.70;99.90;;;;;;4938681;29;20487;-85
2021/03/09 04:12:37;;;;;;;15.60;7.38;;;1.80;99.90;;;;;;4938722;29;20024;-84
2021/03/09 04:15:05;;;;;;;11.88;7.40;;;1.80;99.90;;;;;;4938683;29;20082;-84
2021/03/09 04:17:32;;;;;;;12.25;7.18;;;1.60;99.90;;;;;;4955847;29;20031;-84
2021/03/09 04:19:59;;;;;;;11.57;7.32;;;1.20;99.90;;;;;;4938611;29;20061;-85
2021/03/09 04:22:26;;;;;;;10.52;7.28;;;1.30;99.90;;;;;;4938606;29;20428;-85
2021/03/09 04:24:52;;;;;;;11.25;7.20;;;1.10;99.90;;;;;;4938802;29;20020;-84
2021/03/09 04:27:21;;;;;;;14.13;6.72;;;1.70;99.90;;;;;;4938590;29;20086;-84
2021/03/09 04:29:56;;;;;;;10.68;6.68;;;2.10;99.90;;;;;;4938530;29;20140;-84
2021/03/09 04:32:23;;;;;;;13.32;7.13;;;2.00;99.90;;;;;;4955534;28;20036;-85
2021/03/09 04:34:49;;;;;;;10.65;7.53;;;1.90;99.90;;;;;;4938458;29;20031;-85
2021/03/09 04:37:18;;;;;;;12.57;7.50;;;1.80;99.90;;;;;;4938408;29;20023;-85
2021/03/09 04:39:45;;;;;;;14.52;6.88;;;1.40;99.90;;;;;;4938410;29;20054;-84
2021/03/09 04:42:11;;;;;;;10.18;6.97;;;1.50;99.90;;;;;;4955557;29;20039;-85
2021/03/09 04:44:38;;;;;;;13.85;8.55;;;1.60;99.90;;;;;;4955537;29;20031;-84
2021/03/09 04:47:06;;;;;;;12.75;6.75;;;1.70;99.90;;;;;;4955513;29;20387;-85
2021/03/09 04:49:35;;;;;;;11.05;6.70;;;1.40;99.90;;;;;;4938075;29;20065;-85
2021/03/09 04:52:01;;;;;;;14.20;7.97;;;1.50;99.90;;;;;;4955696;29;20479;-85
2021/03/09 04:54:27;;;;;;;13.32;8.02;;;1.50;99.90;;;;;;4955444;29;20047;-85
2021/03/09 04:56:53;;;;;;;13.80;7.45;;;1.10;99.90;;;;;;4938151;29;20027;-85
2021/03/09 04:59:19;;;;;;;13.23;8.48;;;1.10;99.90;;;;;;4938729;29;20118;-85
2021/03/09 05:01:45;;;;;;;11.55;8.43;;;1.20;99.90;;;;;;4938122;29;20444;-84
2021/03/09 05:04:11;;;;;;;12.40;8.52;;;1.20;99.90;;;;;;4938073;29;20475;-85
2021/03/09 05:06:37;;;;;;;13.82;7.90;;;1.30;99.90;;;;;;4938104;29;20104;-85
2021/03/09 05:09:03;;;;;;;17.10;8.18;;;1.40;99.90;;;;;;4955253;29;20024;-85
2021/03/09 05:11:30;;;;;;;12.23;7.68;;;1.50;99.90;;;;;;4937973;29;20151;-85
2021/03/09 05:13:56;;;;;;;11.75;7.80;;;1.70;99.90;;;;;;4955185;29;20225;-85
2021/03/09 05:16:22;;;;;;;12.52;8.50;;;1.90;99.90;;;;;;4937995;29;20023;-84
2021/03/09 05:18:48;;;;;;;14.48;8.75;;;1.90;99.90;;;;;;4937937;29;20062;-84
2021/03/09 05:21:14;;;;;;;15.80;8.95;;;1.80;99.90;;;;;;4955747;28;20035;-84
2021/03/09 05:23:40;;;;;;;15.50;9.48;;;2.00;99.90;;;;;;4942057;29;20042;-85
2021/03/09 05:26:06;;;;;;;10.93;7.57;;;1.90;99.90;;;;;;4941754;29;20023;-85
2021/03/09 05:28:31;;;;;;;13.50;8.65;;;1.70;99.90;;;;;;4941717;29;20447;-85
2021/03/09 05:31:01;;;;;;;13.68;9.25;;;1.20;99.90;;;;;;4941544;29;20122;-85
2021/03/09 05:33:27;;;;;;;16.10;9.30;;;1.00;99.90;;;;;;4958821;29;20051;-84
2021/03/09 05:35:55;;;;;;;15.43;8.20;;;0.70;99.90;;;;;;4941584;29;20066;-85
2021/03/09 05:38:21;;;;;;;13.45;8.55;;;1.20;99.90;;;;;;4958727;29;20027;-84
2021/03/09 05:40:47;;;;;;;19.95;9.02;;;1.30;99.90;;;;;;4941464;29;20038;-85
2021/03/09 05:43:13;;;;;;;14.88;8.65;;;1.50;99.90;;;;;;4958892;29;20027;-84
2021/03/09 05:45:40;;;;;;;14.52;8.90;;;1.30;99.90;;;;;;4958634;29;20105;-84
2021/03/09 05:48:06;;;;;;;13.95;7.90;;;1.50;99.90;;;;;;4941417;29;20034;-84
2021/03/09 05:50:32;;;;;;;19.88;8.90;;;1.60;99.90;;;;;;4958319;29;20403;-84
2021/03/09 05:52:57;;;;;;;13.05;9.07;;;1.40;99.90;;;;;;4941249;29;20024;-85
2021/03/09 05:55:23;;;;;;;16.05;9.68;;;1.20;99.90;;;;;;4941232;29;20447;-84
2021/03/09 05:57:50;;;;;;;14.60;8.43;;;1.10;99.90;;;;;;4941153;29;20081;-85
2021/03/09 06:00:16;;;;;;;13.32;8.25;;;1.10;99.90;;;;;;4941068;29;20034;-84
2021/03/09 06:02:44;;;;;;;16.98;9.30;;;1.40;99.90;;;;;;4940926;29;20027;-85
2021/03/09 06:05:12;;;;;;;17.35;9.60;;;1.10;99.90;;;;;;4941398;29;20404;-83
2021/03/09 06:07:38;;;;;;;10.30;7.57;;;1.20;99.90;;;;;;4926283;29;20027;-84
2021/03/09 06:10:17;;;;;;;13.70;8.48;;;1.40;99.90;;;;;;4942331;29;20034;-84
2021/03/09 06:12:43;;;;;;;16.02;9.25;;;1.40;99.90;;;;;;4941641;29;20034;-84
2021/03/09 06:15:09;;;;;;;16.00;9.50;;;1.60;99.90;;;;;;4940888;29;20110;-84
2021/03/09 06:17:39;;;;;;;14.40;8.75;;;1.80;99.90;;;;;;4958516;29;20030;-84
2021/03/09 06:20:17;;;;;;;13.38;8.70;;;1.70;99.90;;;;;;4941067;29;20028;-84
2021/03/09 06:22:47;;;;;;;12.77;8.80;;;1.70;99.90;;;;;;4940726;29;20019;-84
2021/03/09 06:25:24;;;;;;;15.90;10.27;;;1.60;99.90;;;;;;4940921;29;20466;-84
2021/03/09 06:27:50;;;;;;;15.50;9.32;;;1.30;99.90;;;;;;4957854;29;20398;-84
2021/03/09 06:30:25;;;;;;;18.42;9.63;;;1.20;99.90;;;;;;4941078;29;20027;-84
2021/03/09 06:32:51;;;;;;;21.25;9.90;;;1.40;99.90;;;;;;4939385;29;20031;-84
2021/03/09 06:35:27;;;;;;;17.98;8.82;;;1.30;99.90;;;;;;4941007;29;20027;-84
2021/03/09 06:37:54;;;;;;;18.70;9.55;;;1.40;99.90;;;;;;4940999;29;20118;-84
2021/03/09 06:40:20;;;;;;;16.55;9.00;;;1.60;99.90;;;;;;4940666;29;20106;-85
2021/03/09 06:42:45;;;;;;;14.85;7.68;;;1.70;99.90;;;;;;4940589;29;20054;-84
2021/03/09 06:45:14;;;;;;;19.25;10.57;;;2.00;99.90;;;;;;4957490;29;20425;-84
2021/03/09 06:47:44;;;;;;;19.95;9.02;;;1.80;99.90;;;;;;4940253;29;20368;-85
2021/03/09 06:50:11;;;;;;;15.32;9.35;;;1.80;99.90;;;;;;4939439;29;20035;-85
2021/03/09 06:52:41;;;;;;;17.35;10.82;;;1.70;99.90;;;;;;4939456;29;20057;-84
2021/03/09 06:55:09;;;;;;;18.27;10.45;;;1.70;99.90;;;;;;4939848;29;20407;-85
2021/03/09 06:57:36;;;;;;;13.70;9.45;;;1.70;99.90;;;;;;4939347;29;20491;-85
2021/03/09 07:00:06;;;;;;;15.07;8.93;;;1.20;99.90;;;;;;4938925;29;20042;-85
2021/03/09 07:02:31;;;;;;;17.42;9.95;;;1.50;99.90;;;;;;4939169;29;20035;-84
2021/03/09 07:05:06;;;;;;;15.45;9.38;;;1.60;99.90;;;;;;4938903;29;20114;-85
2021/03/09 07:07:34;;;;;;;16.23;10.27;;;1.60;99.90;;;;;;4939155;29;20035;-85
2021/03/09 07:10:00;;;;;;;19.27;10.77;;;1.50;99.90;;;;;;4938936;29;20380;-85
2021/03/09 07:12:27;;;;;;;16.90;9.73;;;1.50;99.90;;;;;;4938856;29;20034;-85
2021/03/09 07:14:59;;;;;;;18.02;9.73;;;1.90;99.90;;;;;;4938774;29;20031;-84
2021/03/09 07:17:28;;;;;;;20.58;10.90;;;2.00;99.90;;;;;;4938769;29;20027;-85
2021/03/09 07:19:58;;;;;;;16.65;9.82;;;2.10;99.90;;;;;;4939467;29;20450;-85
2021/03/09 07:22:25;;;;;;;18.13;10.40;;;2.10;99.90;;;;;;4938992;29;20031;-85
2021/03/09 07:25:04;;;;;;;18.98;10.82;;;2.00;99.90;;;;;;4938686;29;20398;-85
2021/03/09 07:28:11;;;;;;;17.30;10.23;;;2.30;99.90;;;;;;4938640;29;20031;-85
2021/03/09 07:30:39;;;;;;;15.55;9.73;;;2.10;99.90;;;;;;4907336;29;20032;-86
2021/03/09 07:33:06;;;;;;;16.35;10.45;;;2.20;99.90;;;;;;4938757;29;20028;-85
2021/03/09 07:35:45;;;;;;;18.92;10.43;;;2.50;99.90;;;;;;4938442;29;20505;-85
2021/03/09 07:38:12;;;;;;;17.45;10.75;;;2.50;99.90;;;;;;4939024;29;20023;-86
2021/03/09 07:40:38;;;;;;;15.40;10.13;;;2.60;99.90;;;;;;4939227;29;20034;-86
2021/03/09 07:43:04;;;;;;;13.77;9.57;;;2.70;99.90;;;;;;4938651;29;20039;-86
2021/03/09 07:45:36;;;;;;;16.52;10.95;;;2.70;99.90;;;;;;4938216;29;20037;-86
2021/03/09 07:48:13;;;;;;;16.83;9.98;;;2.90;99.90;;;;;;4938813;29;20031;-85
2021/03/09 07:50:41;;;;;;;15.40;10.35;;;3.00;99.90;;;;;;4887905;29;1991478;-86
2021/03/09 07:53:20;;;;;;;16.85;10.73;;;3.10;99.90;;;;;;4939298;29;20100;-85
2021/03/09 07:55:48;;;;;;;21.13;11.63;;;3.10;99.90;;;;;;4939161;29;20031;-85
2021/03/09 07:58:26;;;;;;;19.60;12.05;;;2.80;99.90;;;;;;4939235;29;20475;-86
2021/03/09 08:00:57;;;;;;;24.85;11.82;;;2.90;99.90;;;;;;4939647;29;20468;-85
2021/03/09 08:03:31;;;;;;;34.38;14.65;;;2.90;99.90;;;;;;4938914;29;20034;-86
2021/03/09 08:06:08;;;;;;;21.80;11.75;;;2.90;99.90;;;;;;4938856;29;20491;-86
2021/03/09 08:08:40;;;;;;;16.58;11.43;;;3.20;99.90;;;;;;4938762;29;20499;-86
2021/03/09 08:11:16;;;;;;;19.52;12.90;;;3.30;99.90;;;;;;4938855;29;20114;-86
2021/03/09 08:13:42;;;;;;;20.63;12.57;;;3.40;99.90;;;;;;4939889;29;20031;-86
2021/03/09 08:16:20;;;;;;;21.52;12.43;;;3.60;99.90;;;;;;4938638;29;20024;-86
2021/03/09 08:18:53;;;;;;;19.13;11.30;;;3.30;99.90;;;;;;4938973;29;20075;-86
2021/03/09 08:21:20;;;;;;;28.90;13.68;;;3.30;99.90;;;;;;4938642;29;20035;-86
2021/03/09 08:23:52;;;;;;;31.13;14.70;;;3.70;99.90;;;;;;4938622;29;20082;-86
2021/03/09 08:26:20;;;;;;;21.92;12.73;;;3.50;99.90;;;;;;4938562;29;20052;-86
2021/03/09 08:28:46;;;;;;;22.55;12.90;;;3.80;99.90;;;;;;4938527;29;20557;-86
2021/03/09 08:31:12;;;;;;;21.67;12.18;;;3.80;99.90;;;;;;4938227;28;20067;-86
2021/03/09 08:33:52;;;;;;;20.00;12.85;;;3.90;99.90;;;;;;4940117;29;20019;-86
2021/03/09 08:36:24;;;;;;;21.52;13.95;;;4.00;99.90;;;;;;4940953;29;20571;-87
2021/03/09 08:39:16;;;;;;;21.58;13.15;;;4.10;99.90;;;;;;4939011;29;20391;-86
2021/03/09 08:41:42;;;;;;;22.55;12.65;;;4.00;99.90;;;;;;4938828;29;20034;-88
2021/03/09 08:44:20;;;;;;;20.30;12.38;;;4.20;99.90;;;;;;4938891;29;20027;-87
2021/03/09 08:47:07;;;;;;;23.90;12.90;;;4.20;99.90;;;;;;4939258;29;20031;-87
2021/03/09 08:49:36;;;;;;;14.90;10.77;;;4.50;99.90;;;;;;4938203;29;20553;-87
2021/03/09 08:52:04;;;;;;;16.48;11.52;;;4.50;99.90;;;;;;4938175;29;20079;-87
2021/03/09 08:54:41;;;;;;;19.23;12.27;;;4.60;99.90;;;;;;4938597;29;20114;-87
2021/03/09 08:57:12;;;;;;;22.48;12.38;;;4.90;99.90;;;;;;4938649;29;20019;-88
2021/03/09 08:59:39;;;;;;;16.75;10.98;;;5.10;99.90;;;;;;4938299;29;20028;-87
2021/03/09 09:02:06;;;;;;;16.63;11.27;;;5.30;99.90;;;;;;4938494;29;20031;-87
2021/03/09 09:04:41;;;;;;;21.33;11.90;;;5.50;99.90;;;;;;4938582;29;20031;-87
2021/03/09 09:07:34;;;;;;;18.83;12.70;;;5.60;99.90;;;;;;4938619;29;20038;-88
2021/03/09 09:10:12;;;;;;;20.60;11.10;;;5.40;99.90;;;;;;4938546;29;20122;-88
2021/03/09 09:12:46;;;;;;;17.08;11.35;;;5.40;99.90;;;;;;4938775;29;20038;-88
2021/03/09 09:15:26;;;;;;;21.08;13.32;;;5.50;99.90;;;;;;4938999;29;20023;-88
2021/03/09 09:18:02;;;;;;;15.32;10.73;;;5.60;99.90;;;;;;4939150;29;20031;-88
2021/03/09 09:20:41;;;;;;;18.38;10.57;;;5.80;99.90;;;;;;4938922;29;20053;-88
2021/03/09 09:23:10;;;;;;;17.08;12.38;;;5.90;99.90;;;;;;4938948;29;20030;-88
2021/03/09 09:25:38;;;;;;;21.92;10.55;;;6.20;99.90;;;;;;4938457;29;20030;-89
2021/03/09 09:28:05;;;;;;;16.05;11.38;;;6.00;99.90;;;;;;4938338;29;20467;-88
2021/03/09 09:30:42;;;;;;;16.52;11.25;;;5.90;99.90;;;;;;4937878;29;20368;-88
2021/03/09 09:33:12;;;;;;;18.25;11.88;;;6.00;99.90;;;;;;4938251;29;20424;-88
2021/03/09 09:35:46;;;;;;;16.13;10.73;;;6.10;99.90;;;;;;4939194;29;20023;-88
2021/03/09 09:38:17;;;;;;;19.48;11.18;;;6.20;99.90;;;;;;4938762;29;20078;-88
2021/03/09 09:40:50;;;;;;;19.08;11.80;;;6.10;99.90;;;;;;4938793;29;20031;-88
2021/03/09 09:43:22;;;;;;;15.73;9.67;;;6.10;99.90;;;;;;4938511;29;20361;-88
2021/03/09 09:45:56;;;;;;;15.90;10.63;;;6.20;99.90;;;;;;4938617;29;20027;-88
2021/03/09 09:48:37;;;;;;;19.30;10.88;;;6.30;99.90;;;;;;4938243;29;20066;-88
2021/03/09 09:51:05;;;;;;;15.52;9.20;;;6.50;99.90;;;;;;4938898;29;20044;-88
2021/03/09 09:53:40;;;;;;;12.80;9.88;;;6.70;99.90;;;;;;4937578;29;20031;-88
2021/03/09 09:56:14;;;;;;;14.02;9.77;;;6.80;99.90;;;;;;4937872;29;20027;-88
2021/03/09 09:58:50;;;;;;;12.50;8.73;;;7.00;99.90;;;;;;4938660;29;20028;-90
2021/03/09 10:01:33;;;;;;;11.52;8.45;;;7.10;99.90;;;;;;4954968;29;20538;-87
2021/03/09 10:04:00;;;;;;;13.60;8.50;;;7.30;99.90;;;;;;4937678;29;20034;-89
2021/03/09 10:06:28;;;;;;;12.10;8.32;;;7.30;99.90;;;;;;4955127;29;20427;-87
2021/03/09 10:09:18;;;;;;;12.43;8.65;;;7.40;99.90;;;;;;4940556;29;20494;-88
2021/03/09 10:11:58;;;;;;;11.02;8.00;;;7.60;99.90;;;;;;4941062;29;20027;-88
2021/03/09 10:14:38;;;;;;;11.77;7.50;;;7.80;99.90;;;;;;4941124;29;20028;-88
2021/03/09 10:17:04;;;;;;;11.38;7.95;;;8.00;99.50;;;;;;4941651;29;20367;-88
2021/03/09 10:19:38;;;;;;;11.65;8.13;;;8.00;99.30;;;;;;4941164;29;20027;-88
2021/03/09 10:22:16;;;;;;;12.45;8.50;;;8.10;99.00;;;;;;4940893;29;20027;-88
2021/03/09 10:24:42;;;;;;;11.57;7.85;;;8.40;98.40;;;;;;4958266;29;20027;-89
2021/03/09 10:27:26;;;;;;;11.70;7.60;;;8.60;99.00;;;;;;4940600;29;20063;-89
2021/03/09 10:29:56;;;;;;;10.30;7.53;;;8.70;98.10;;;;;;4940692;29;20122;-89
2021/03/09 10:32:24;;;;;;;9.88;6.93;;;8.70;97.90;;;;;;4940995;29;20476;-87
2021/03/09 10:34:56;;;;;;;9.52;6.65;;;8.70;97.20;;;;;;4941037;29;20034;-88
2021/03/09 10:37:41;;;;;;;11.10;7.38;;;8.80;95.70;;;;;;4940938;29;20149;-89
2021/03/09 10:40:14;;;;;;;9.63;7.00;;;8.60;95.90;;;;;;4941946;29;20023;-88
2021/03/09 10:42:48;;;;;;;8.35;6.45;;;8.80;94.70;;;;;;4941209;29;20023;-88
2021/03/09 10:48:06;;;;;;;;;;;8.50;94.40;;;;;;4958274;29;20038;-87
2021/03/09 10:50:40;;;;;;;9.93;6.57;;;8.30;94.60;;;;;;4940184;29;19914;-88
2021/03/09 10:53:06;;;;;;;;;;;8.30;94.90;;;;;;4941422;29;20027;-88
2021/03/09 10:55:34;;;;;;;8.02;6.22;;;8.40;94.90;;;;;;4940869;29;19906;-88
2021/03/09 10:57:59;;;;;;;10.18;6.40;;;8.30;94.90;;;;;;4941092;29;20551;-88
2021/03/09 11:00:27;;;;;;;9.88;6.63;;;8.50;94.40;;;;;;4940869;29;20023;-88
2021/03/09 11:02:52;;;;;;;12.02;6.85;;;8.70;93.60;;;;;;4940214;29;20506;-88
2021/03/09 11:05:18;;;;;;;14.35;7.75;;;8.70;93.40;;;;;;4940071;29;20024;-87
2021/03/09 11:07:44;;;;;;;9.98;6.10;;;8.30;93.20;;;;;;4940564;29;20024;-87
2021/03/09 11:10:11;;;;;;;9.40;6.18;;;8.40;93.90;;;;;;4940720;29;20074;-87
2021/03/09 11:12:38;;;;;;;12.13;8.13;;;8.20;93.70;;;;;;4940096;29;20027;-88
2021/03/09 11:15:06;;;;;;;11.13;7.32;;;8.20;93.70;;;;;;4939953;29;20054;-88
2021/03/09 11:17:32;;;;;;;10.65;6.85;;;8.10;93.20;;;;;;4939774;29;20027;-88
2021/03/09 11:19:58;;;;;;;11.35;7.38;;;8.40;93.00;;;;;;4956423;28;20019;-87
2021/03/09 11:22:23;;;;;;;13.07;7.35;;;8.50;92.60;;;;;;4940001;29;20030;-88
2021/03/09 11:24:49;;;;;;;11.00;6.45;;;8.70;92.10;;;;;;4939649;29;20424;-87
2021/03/09 11:27:15;;;;;;;11.20;8.35;;;8.70;92.10;;;;;;4939543;29;20051;-88
2021/03/09 11:29:41;;;;;;;10.80;7.32;;;8.90;92.10;;;;;;4939894;29;20408;-88
2021/03/09 11:32:07;;;;;;;10.40;7.90;;;9.10;91.60;;;;;;4939380;29;20079;-88
2021/03/09 11:34:34;;;;;;;14.63;7.50;;;9.50;90.40;;;;;;4939465;29;20542;-88
2021/03/09 11:37:00;;;;;;;12.23;7.72;;;9.80;90.20;;;;;;4939828;29;20023;-87
2021/03/09 11:39:26;;;;;;;8.13;6.72;;;9.60;90.30;;;;;;4939415;29;20148;-88
2021/03/09 11:41:53;;;;;;;10.82;6.68;;;9.50;90.30;;;;;;4939656;29;20114;-87
2021/03/09 11:44:19;;;;;;;14.68;7.82;;;9.40;90.20;;;;;;4939648;29;20035;-87
2021/03/09 11:46:45;;;;;;;8.73;7.25;;;9.70;88.50;;;;;;4939196;29;20031;-88
2021/03/09 11:49:11;;;;;;;10.18;7.10;;;10.20;87.90;;;;;;4939415;29;20106;-87
2021/03/09 11:51:37;;;;;;;13.93;7.57;;;10.00;87.70;;;;;;4939373;29;20043;-87
2021/03/09 11:54:06;;;;;;;9.13;6.65;;;9.70;87.30;;;;;;4939088;29;20019;-87
2021/03/09 11:56:32;;;;;;;11.50;6.80;;;9.70;86.80;;;;;;4939375;29;20024;-86
2021/03/09 11:58:58;;;;;;;8.80;6.82;;;9.50;87.00;;;;;;4939079;29;20027;-86
2021/03/09 12:01:24;;;;;;;10.02;6.85;;;9.20;86.80;;;;;;4939563;29;20394;-86
2021/03/09 12:03:50;;;;;;;10.93;6.40;;;9.00;89.00;;;;;;4938928;29;20034;-86
2021/03/09 12:06:15;;;;;;;15.07;6.97;;;9.00;89.90;;;;;;4938807;29;20030;-86
2021/03/09 12:08:41;;;;;;;9.07;6.80;;;9.30;88.30;;;;;;4938801;29;20038;-87
2021/03/09 12:11:07;;;;;;;10.10;7.30;;;9.60;86.70;;;;;;4938760;29;20031;-86
2021/03/09 12:13:34;;;;;;;8.68;5.97;;;9.50;86.10;;;;;;4938768;29;20042;-86
2021/03/09 12:16:00;;;;;;;10.77;7.35;;;9.50;85.30;;;;;;4938763;29;20130;-87
2021/03/09 12:18:28;;;;;;;10.20;8.00;;;9.40;85.20;;;;;;4938815;29;20023;-86
2021/03/09 12:20:53;;;;;;;10.07;7.00;;;9.80;84.80;;;;;;4938805;29;20111;-87
2021/03/09 12:23:19;;;;;;;8.85;6.88;;;10.70;82.40;;;;;;4955738;29;20055;-87
2021/03/09 12:25:45;;;;;;;12.35;7.15;;;11.10;79.80;;;;;;4938400;29;20086;-87
2021/03/09 12:28:11;;;;;;;7.68;5.55;;;11.50;78.50;;;;;;4938711;29;20027;-88
2021/03/09 12:30:36;;;;;;;10.07;7.22;;;12.30;76.20;;;;;;4938013;29;20543;-85
2021/03/09 12:33:03;;;;;;;17.25;8.13;;;12.20;74.50;;;;;;4938452;29;20411;-87
2021/03/09 12:35:31;;;;;;;13.00;8.25;;;12.10;73.00;;;;;;4938630;29;20035;-87
2021/03/09 12:37:57;;;;;;;12.88;9.02;;;12.30;72.70;;;;;;4938318;29;20063;-87
2021/03/09 12:40:23;;;;;;;12.57;7.75;;;12.40;71.10;;;;;;4938248;29;20513;-87
2021/03/09 12:42:49;;;;;;;11.45;8.70;;;12.60;70.30;;;;;;4938201;29;20031;-87
2021/03/09 12:45:15;;;;;;;10.43;7.75;;;12.40;69.30;;;;;;4922737;29;20027;-87
2021/03/09 12:47:41;;;;;;;10.85;7.97;;;12.40;69.40;;;;;;4955390;29;20086;-87
2021/03/09 12:50:07;;;;;;;15.45;6.97;;;12.90;69.30;;;;;;4938491;29;20050;-87
2021/03/09 12:52:33;;;;;;;8.98;7.35;;;12.80;67.60;;;;;;4938587;29;20122;-86
2021/03/09 12:54:59;;;;;;;12.80;7.28;;;12.70;65.90;;;;;;4938131;29;20506;-86
2021/03/09 12:57:25;;;;;;;9.40;7.28;;;12.60;67.50;;;;;;4955251;29;20136;-86
2021/03/09 12:59:53;;;;;;;9.52;7.70;;;12.70;66.80;;;;;;4938822;29;20027;-86